createdAt,value
2022-12-23T00:00:45.177Z,9.55
2022-12-23T00:03:12.682Z,10.00
2022-12-23T00:05:40.888Z,9.75
2022-12-23T00:08:08.463Z,8.80
2022-12-23T00:10:39.629Z,9.38
2022-12-23T00:13:26.836Z,9.70
2022-12-23T00:16:10.148Z,9.32
2022-12-23T00:18:37.908Z,8.98
2022-12-23T00:21:09.066Z,9.45
2022-12-23T00:23:40.133Z,8.88
2022-12-23T00:26:08.258Z,10.55
2022-12-23T00:28:34.997Z,9.75
2022-12-23T00:31:06.103Z,9.27
2022-12-23T00:33:37.264Z,9.43
2022-12-23T00:36:14.083Z,10.07
2022-12-23T00:38:59.403Z,10.18
2022-12-23T00:41:45.007Z,9.77
2022-12-23T00:44:11.805Z,9.57
2022-12-23T00:46:38.786Z,9.63
2022-12-23T00:49:24.484Z,11.13
2022-12-23T00:51:51.362Z,9.73
2022-12-23T00:54:18.775Z,9.88
2022-12-23T00:56:45.507Z,10.05
2022-12-23T00:59:12.533Z,9.63
2022-12-23T01:01:58.147Z,10.35
2022-12-23T01:04:44.138Z,9.55
2022-12-23T01:07:12.337Z,9.70
2022-12-23T01:09:39.070Z,10.15
2022-12-23T01:12:06.217Z,9.05
2022-12-23T01:14:33.321Z,10.40
2022-12-23T01:17:00.621Z,9.80
2022-12-23T01:19:28.267Z,9.57
2022-12-23T01:21:55.184Z,9.50
2022-12-23T01:24:22.421Z,10.52
2022-12-23T01:26:49.149Z,11.25
2022-12-23T01:29:15.950Z,10.93
2022-12-23T01:31:42.721Z,12.07
2022-12-23T01:34:10.407Z,10.00
2022-12-23T01:36:37.268Z,10.93
2022-12-23T01:39:04.653Z,10.35
2022-12-23T01:41:52.543Z,10.80
2022-12-23T01:44:59.923Z,10.88
2022-12-23T01:47:54.625Z,10.32
2022-12-23T01:50:24.250Z,11.13
2022-12-23T01:53:06.885Z,9.63
2022-12-23T01:56:04.664Z,9.88
2022-12-23T01:58:55.123Z,9.80
2022-12-23T02:01:40.840Z,10.10
2022-12-23T02:04:13.827Z,10.63
2022-12-23T02:07:02.028Z,10.77
2022-12-23T02:09:36.264Z,10.60
2022-12-23T02:12:27.113Z,10.20
2022-12-23T02:15:44.724Z,11.25
2022-12-23T02:18:36.838Z,10.88
2022-12-23T02:21:36.140Z,10.52
2022-12-23T02:24:39.244Z,11.45
2022-12-23T02:27:16.946Z,10.75
2022-12-23T02:30:24.985Z,11.05
2022-12-23T02:33:20.178Z,11.15
2022-12-23T02:36:10.356Z,11.30
2022-12-23T02:39:18.563Z,11.27
2022-12-23T02:42:07.713Z,10.68
2022-12-23T02:45:04.954Z,10.40
2022-12-23T02:47:59.275Z,10.93
2022-12-23T02:50:34.151Z,10.65
2022-12-23T02:53:11.272Z,10.65
2022-12-23T02:55:42.553Z,11.73
2022-12-23T02:58:15.567Z,12.30
2022-12-23T03:00:44.804Z,11.50
2022-12-23T03:03:12.107Z,12.02
2022-12-23T03:05:44.984Z,11.10
2022-12-23T03:08:20.505Z,11.63
2022-12-23T03:10:56.401Z,11.23
2022-12-23T03:14:07.168Z,10.73
2022-12-23T03:17:29.722Z,10.82
2022-12-23T03:20:15.150Z,10.23
2022-12-23T03:23:02.567Z,12.13
2022-12-23T03:25:40.474Z,10.90
2022-12-23T03:28:25.470Z,12.07
2022-12-23T03:30:57.400Z,12.27
2022-12-23T03:33:38.661Z,11.95
2022-12-23T03:36:17.192Z,11.70
2022-12-23T03:38:45.809Z,12.57
2022-12-23T03:41:26.535Z,11.40
2022-12-23T03:44:00.610Z,10.65
2022-12-23T03:46:42.789Z,11.05
2022-12-23T03:49:21.582Z,10.43
2022-12-23T03:52:00.922Z,10.95
2022-12-23T03:54:39.680Z,11.07
2022-12-23T03:57:10.234Z,11.30
2022-12-23T03:59:43.658Z,11.43
2022-12-23T04:02:28.955Z,11.38
2022-12-23T04:05:21.700Z,10.35
2022-12-23T04:08:27.135Z,11.02
2022-12-23T04:10:54.341Z,10.80
2022-12-23T04:13:21.069Z,11.80
2022-12-23T04:15:48.019Z,11.40
2022-12-23T04:18:16.959Z,11.65
2022-12-23T04:20:43.688Z,12.43
2022-12-23T04:23:10.499Z,11.43
2022-12-23T04:25:37.404Z,12.20
2022-12-23T04:28:04.429Z,11.30
2022-12-23T04:30:34.314Z,12.85
2022-12-23T04:33:01.420Z,11.98
2022-12-23T04:35:28.247Z,12.77
2022-12-23T04:37:55.048Z,12.00
2022-12-23T04:40:21.844Z,11.40
2022-12-23T04:42:48.582Z,11.90
2022-12-23T04:45:15.518Z,11.82
2022-12-23T04:47:42.299Z,12.00
2022-12-23T04:50:15.621Z,11.60
2022-12-23T04:52:43.758Z,11.98
2022-12-23T04:55:10.895Z,10.73
2022-12-23T04:57:37.731Z,12.40
2022-12-23T05:00:05.576Z,11.43
2022-12-23T05:02:32.584Z,11.52
2022-12-23T05:04:59.430Z,12.18
2022-12-23T05:07:26.191Z,11.55
2022-12-23T05:09:52.936Z,12.48
2022-12-23T05:12:19.735Z,11.07
2022-12-23T05:14:47.229Z,10.50
2022-12-23T05:17:13.967Z,12.02
2022-12-23T05:19:40.673Z,12.18
2022-12-23T05:22:08.828Z,11.07
2022-12-23T05:24:35.557Z,11.50
2022-12-23T05:27:02.279Z,11.05
2022-12-23T05:29:29.037Z,11.27
2022-12-23T05:31:55.827Z,10.45
2022-12-23T05:34:22.663Z,11.07
2022-12-23T05:36:49.413Z,10.20
2022-12-23T05:39:16.138Z,10.25
2022-12-23T05:41:42.978Z,9.88
2022-12-23T05:44:09.853Z,9.77
2022-12-23T05:46:36.958Z,10.48
2022-12-23T05:49:03.699Z,9.82
2022-12-23T05:51:30.511Z,9.25
2022-12-23T05:53:57.256Z,10.13
2022-12-23T05:56:24.079Z,9.18
2022-12-23T05:58:50.808Z,9.65
2022-12-23T06:01:18.620Z,8.75
2022-12-23T06:03:45.422Z,8.95
2022-12-23T06:06:13.104Z,9.63
2022-12-23T06:08:39.835Z,9.20
2022-12-23T06:11:06.922Z,9.60
2022-12-23T06:13:33.953Z,9.32
2022-12-23T06:16:00.664Z,9.82
2022-12-23T06:18:27.414Z,10.35
2022-12-23T06:20:54.149Z,9.20
2022-12-23T06:23:20.906Z,10.07
2022-12-23T06:25:47.633Z,9.20
2022-12-23T06:28:15.380Z,9.57
2022-12-23T06:30:42.070Z,11.13
2022-12-23T06:33:08.776Z,11.43
2022-12-23T06:35:35.498Z,9.80
2022-12-23T06:38:02.242Z,9.25
2022-12-23T06:40:29.722Z,9.32
2022-12-23T06:42:56.471Z,9.57
2022-12-23T06:45:23.235Z,9.60
2022-12-23T06:47:49.970Z,10.20
2022-12-23T06:50:16.795Z,8.85
2022-12-23T06:52:43.532Z,9.98
2022-12-23T06:55:10.296Z,10.80
2022-12-23T06:57:37.218Z,9.95
2022-12-23T07:00:09.046Z,10.43
2022-12-23T07:02:35.984Z,10.35
2022-12-23T07:05:02.891Z,9.93
2022-12-23T07:07:30.926Z,10.82
2022-12-23T07:09:57.650Z,9.88
2022-12-23T07:12:24.413Z,10.05
2022-12-23T07:14:51.164Z,10.45
2022-12-23T07:17:17.963Z,10.43
2022-12-23T07:19:44.719Z,9.13
2022-12-23T07:22:11.422Z,9.70
2022-12-23T07:24:38.215Z,8.27
2022-12-23T07:27:05.434Z,8.18
2022-12-23T07:29:32.152Z,7.88
2022-12-23T07:31:58.997Z,7.85
2022-12-23T07:34:26.821Z,7.15
2022-12-23T07:36:53.897Z,7.03
2022-12-23T07:39:20.686Z,7.30
2022-12-23T07:41:47.430Z,7.68
2022-12-23T07:44:14.345Z,7.03
2022-12-23T07:46:41.204Z,8.05
2022-12-23T07:49:08.170Z,6.88
2022-12-23T07:51:34.980Z,7.38
2022-12-23T07:54:01.724Z,7.03
2022-12-23T07:56:28.613Z,7.30
2022-12-23T07:58:55.400Z,7.60
2022-12-23T08:01:22.846Z,7.03
2022-12-23T08:03:49.818Z,6.72
2022-12-23T08:06:17.151Z,6.70
2022-12-23T08:08:46.111Z,6.50
2022-12-23T08:11:15.309Z,6.28
2022-12-23T08:13:45.044Z,6.97
2022-12-23T08:16:12.805Z,6.63
2022-12-23T08:18:41.832Z,6.30
2022-12-23T08:21:14.774Z,7.20
2022-12-23T08:23:42.154Z,6.27
2022-12-23T08:26:16.909Z,6.55
2022-12-23T08:28:45.314Z,6.47
2022-12-23T08:31:24.112Z,6.22
2022-12-23T08:33:55.600Z,6.05
2022-12-23T08:36:30.554Z,6.88
2022-12-23T08:39:00.623Z,6.25
2022-12-23T08:41:31.724Z,5.97
2022-12-23T08:43:59.049Z,6.30
2022-12-23T08:46:26.731Z,6.75
2022-12-23T08:48:54.530Z,7.03
2022-12-23T08:51:24.219Z,7.00
2022-12-23T08:53:59.546Z,6.68
2022-12-23T08:56:30.904Z,6.57
2022-12-23T08:58:58.143Z,6.40
2022-12-23T09:01:29.766Z,5.63
2022-12-23T09:03:57.069Z,6.20
2022-12-23T09:06:30.025Z,6.78
2022-12-23T09:08:58.821Z,5.90
2022-12-23T09:11:28.901Z,5.95
2022-12-23T09:13:57.829Z,5.63
2022-12-23T09:16:24.897Z,5.00
2022-12-23T09:18:51.742Z,5.60
2022-12-23T09:21:21.685Z,6.35
2022-12-23T09:23:49.186Z,6.22
2022-12-23T09:26:29.731Z,5.75
2022-12-23T09:28:57.615Z,6.47
2022-12-23T09:31:27.959Z,6.95
2022-12-23T09:33:59.255Z,7.60
2022-12-23T09:36:25.976Z,7.30
2022-12-23T09:38:57.917Z,8.65
2022-12-23T09:41:51.415Z,8.10
2022-12-23T09:44:54.544Z,7.88
2022-12-23T09:47:26.797Z,8.77
2022-12-23T09:50:19.948Z,8.35
2022-12-23T09:53:07.743Z,8.77
2022-12-23T09:55:49.035Z,8.23
2022-12-23T09:58:31.648Z,8.98
2022-12-23T10:01:22.331Z,8.43
2022-12-23T10:04:41.867Z,9.70
2022-12-23T10:07:24.185Z,9.35
2022-12-23T10:09:56.326Z,9.02
2022-12-23T10:12:42.003Z,8.75
2022-12-23T10:15:46.439Z,8.93
2022-12-23T10:18:27.499Z,8.88
2022-12-23T10:21:28.155Z,8.27
2022-12-23T10:23:55.450Z,8.45
2022-12-23T10:26:30.812Z,8.32
2022-12-23T10:29:19.676Z,7.22
2022-12-23T10:32:17.437Z,7.63
2022-12-23T10:35:33.634Z,7.13
2022-12-23T10:38:31.357Z,7.63
2022-12-23T10:41:17.922Z,6.85
2022-12-23T10:44:11.201Z,6.28
2022-12-23T10:47:01.806Z,6.38
2022-12-23T10:50:04.784Z,6.90
2022-12-23T10:52:38.013Z,6.70
2022-12-23T10:55:05.552Z,6.65
2022-12-23T10:57:32.928Z,7.47
2022-12-23T10:59:59.660Z,7.70
2022-12-23T11:02:49.649Z,7.03
2022-12-23T11:05:25.350Z,6.30
2022-12-23T11:07:52.225Z,6.05
2022-12-23T11:10:28.499Z,5.57
2022-12-23T11:12:55.356Z,6.78
2022-12-23T11:15:37.178Z,6.90
2022-12-23T11:18:17.688Z,6.40
2022-12-23T11:21:06.286Z,7.50
2022-12-23T11:23:36.825Z,6.45
2022-12-23T11:26:17.468Z,6.05
2022-12-23T11:29:04.817Z,5.07
2022-12-23T11:31:35.412Z,5.30
2022-12-23T11:34:13.795Z,5.47
2022-12-23T11:36:41.593Z,4.90
2022-12-23T11:39:21.787Z,5.72
2022-12-23T11:41:53.768Z,5.60
2022-12-23T11:44:34.620Z,5.07
2022-12-23T11:47:23.177Z,5.20
2022-12-23T11:49:54.056Z,5.30
2022-12-23T11:52:24.010Z,6.10
2022-12-23T11:54:57.872Z,5.60
2022-12-23T11:57:43.136Z,5.97
2022-12-23T12:00:30.275Z,6.32
2022-12-23T12:03:00.727Z,7.28
2022-12-23T12:05:38.858Z,6.18
2022-12-23T12:08:11.657Z,6.10
2022-12-23T12:10:41.576Z,7.28
2022-12-23T12:13:29.138Z,7.60
2022-12-23T12:16:22.850Z,7.93
2022-12-23T12:18:55.699Z,7.72
2022-12-23T12:21:31.708Z,8.25
2022-12-23T12:24:32.989Z,8.70
2022-12-23T12:27:05.453Z,7.95
2022-12-23T12:29:48.953Z,8.13
2022-12-23T12:32:38.908Z,7.57
2022-12-23T12:35:16.360Z,7.93
2022-12-23T12:37:55.588Z,8.18
2022-12-23T12:40:38.582Z,7.63
2022-12-23T12:43:32.499Z,7.60
2022-12-23T12:46:42.206Z,7.00
2022-12-23T12:49:33.729Z,7.13
2022-12-23T12:52:15.584Z,7.22
2022-12-23T12:55:01.183Z,7.38
2022-12-23T12:57:30.223Z,6.90
2022-12-23T13:00:05.625Z,7.38
2022-12-23T13:03:13.840Z,7.28
2022-12-23T13:06:22.378Z,6.35
2022-12-23T13:09:26.032Z,6.53
2022-12-23T13:12:18.961Z,6.72
2022-12-23T13:15:27.255Z,6.47
2022-12-23T13:18:32.013Z,6.30
2022-12-23T13:21:22.063Z,7.18
2022-12-23T13:24:37.630Z,6.60
2022-12-23T13:27:33.831Z,5.88
2022-12-23T13:30:12.057Z,6.05
2022-12-23T13:33:01.822Z,6.05
2022-12-23T13:36:05.358Z,6.15
2022-12-23T13:39:01.930Z,6.18
2022-12-23T13:41:46.970Z,6.25
2022-12-23T13:44:15.191Z,6.20
2022-12-23T13:47:07.505Z,6.22
2022-12-23T13:50:23.817Z,6.30
2022-12-23T13:52:58.298Z,5.72
2022-12-23T13:56:11.508Z,6.50
2022-12-23T13:58:40.583Z,5.85
2022-12-23T14:01:08.031Z,6.20
2022-12-23T14:03:37.952Z,6.13
2022-12-23T14:06:23.420Z,6.80
2022-12-23T14:08:53.306Z,5.85
2022-12-23T14:11:27.082Z,5.07
2022-12-23T14:14:00.423Z,6.68
2022-12-23T14:17:02.281Z,5.82
2022-12-23T14:19:50.698Z,5.50
2022-12-23T14:23:18.636Z,6.03
2022-12-23T14:26:16.539Z,5.40
2022-12-23T14:28:59.041Z,5.53
2022-12-23T14:31:41.646Z,5.88
2022-12-23T14:34:17.736Z,4.88
2022-12-23T14:37:20.614Z,5.20
2022-12-23T14:39:48.800Z,5.15
2022-12-23T14:42:41.229Z,6.03
2022-12-23T14:45:42.736Z,5.70
2022-12-23T14:48:34.483Z,5.75
2022-12-23T14:51:10.264Z,5.85
2022-12-23T14:54:00.055Z,6.20
2022-12-23T14:56:47.296Z,5.75
2022-12-23T14:59:46.779Z,5.47
2022-12-23T15:02:29.779Z,5.60
2022-12-23T15:04:59.043Z,5.00
2022-12-23T15:07:42.442Z,4.63
2022-12-23T15:10:26.556Z,4.32
2022-12-23T15:12:58.675Z,4.72
2022-12-23T15:15:31.068Z,4.20
2022-12-23T15:18:07.117Z,4.22
2022-12-23T15:20:35.211Z,3.95
2022-12-23T15:23:09.265Z,5.85
2022-12-23T15:25:43.492Z,4.03
2022-12-23T15:28:24.645Z,4.43
2022-12-23T15:30:56.528Z,5.18
2022-12-23T15:34:01.404Z,4.78
2022-12-23T15:36:32.159Z,4.45
2022-12-23T15:39:00.724Z,4.65
2022-12-23T15:41:28.859Z,5.68
2022-12-23T15:44:01.643Z,5.72
2022-12-23T15:46:30.633Z,5.75
2022-12-23T15:48:57.897Z,6.40
2022-12-23T15:52:06.382Z,6.63
2022-12-23T15:54:32.623Z,6.65
2022-12-23T15:57:03.325Z,7.20
2022-12-23T15:59:38.243Z,8.13
2022-12-23T16:05:08.595Z,7.22
2022-12-23T16:07:41.742Z,7.13
2022-12-23T16:10:20.728Z,7.30
2022-12-23T16:12:52.519Z,7.72
2022-12-23T16:15:32.621Z,7.30
2022-12-23T16:18:28.470Z,7.78
2022-12-23T16:21:00.714Z,7.82
2022-12-23T16:23:36.668Z,8.43
2022-12-23T16:26:04.143Z,8.13
2022-12-23T16:28:50.237Z,8.85
2022-12-23T16:31:20.063Z,8.25
2022-12-23T16:33:56.285Z,8.82
2022-12-23T16:36:28.548Z,9.38
2022-12-23T16:39:20.246Z,8.68
2022-12-23T16:41:47.371Z,8.43
2022-12-23T16:44:14.669Z,8.05
2022-12-23T16:46:49.380Z,8.60
2022-12-23T16:49:27.960Z,8.23
2022-12-23T16:51:56.442Z,8.55
2022-12-23T16:54:23.170Z,9.68
2022-12-23T16:56:52.620Z,8.70
2022-12-23T16:59:20.734Z,8.05
2022-12-23T17:01:49.049Z,8.73
2022-12-23T17:04:16.344Z,8.77
2022-12-23T17:06:43.593Z,8.88
2022-12-23T17:09:11.288Z,7.97
2022-12-23T17:11:41.726Z,8.82
2022-12-23T17:14:20.930Z,8.57
2022-12-23T17:16:49.045Z,6.90
2022-12-23T17:19:21.913Z,8.35
2022-12-23T17:22:00.564Z,8.95
2022-12-23T17:24:27.780Z,8.50
2022-12-23T17:26:56.756Z,8.50
2022-12-23T17:29:23.731Z,8.13
2022-12-23T17:31:51.103Z,8.00
2022-12-23T17:34:24.196Z,8.85
2022-12-23T17:36:52.840Z,8.90
2022-12-23T17:39:20.657Z,9.25
2022-12-23T17:41:48.375Z,10.00
2022-12-23T17:44:17.723Z,12.32
2022-12-23T17:46:46.631Z,14.05
2022-12-23T17:49:13.790Z,13.13
2022-12-23T17:51:41.527Z,12.20
2022-12-23T17:54:21.630Z,12.13
2022-12-23T17:56:48.431Z,9.98
2022-12-23T17:59:15.299Z,11.13
2022-12-23T18:01:42.865Z,10.23
2022-12-23T18:04:09.644Z,10.82
2022-12-23T18:06:36.427Z,10.40
2022-12-23T18:09:03.368Z,10.20
2022-12-23T18:11:50.794Z,11.50
2022-12-23T18:14:27.941Z,10.35
2022-12-23T18:16:55.132Z,10.45
2022-12-23T18:19:21.871Z,10.05
2022-12-23T18:21:49.560Z,10.00
2022-12-23T18:24:16.796Z,10.05
2022-12-23T18:26:44.734Z,9.82
2022-12-23T18:29:11.468Z,9.20
2022-12-23T18:31:51.064Z,9.90
2022-12-23T18:34:18.818Z,9.18
2022-12-23T18:36:46.224Z,9.60
2022-12-23T18:39:13.033Z,10.30
2022-12-23T18:41:39.792Z,10.25
2022-12-23T18:44:06.589Z,9.60
2022-12-23T18:46:33.325Z,9.10
2022-12-23T18:49:00.113Z,10.32
2022-12-23T18:51:26.840Z,9.43
2022-12-23T18:53:53.559Z,9.48
2022-12-23T18:56:24.087Z,9.43
2022-12-23T18:58:50.808Z,10.35
2022-12-23T19:01:18.982Z,9.98
2022-12-23T19:03:47.744Z,10.50
2022-12-23T19:06:15.650Z,10.45
2022-12-23T19:08:43.394Z,10.13
2022-12-23T19:11:15.245Z,10.25
2022-12-23T19:13:42.065Z,9.95
2022-12-23T19:16:18.802Z,9.75
2022-12-23T19:18:47.542Z,9.85
2022-12-23T19:21:17.078Z,9.35
2022-12-23T19:23:44.738Z,9.95
2022-12-23T19:26:14.256Z,10.40
2022-12-23T19:28:41.972Z,10.38
2022-12-23T19:31:14.792Z,9.52
2022-12-23T19:33:45.856Z,10.30
2022-12-23T19:36:20.270Z,9.57
2022-12-23T19:38:47.402Z,10.93
2022-12-23T19:41:14.510Z,10.25
2022-12-23T19:43:44.718Z,10.68
2022-12-23T19:46:13.234Z,10.40
2022-12-23T19:48:40.560Z,10.85
2022-12-23T19:51:13.756Z,11.60
2022-12-23T19:53:42.158Z,10.68
2022-12-23T19:56:14.549Z,11.73
2022-12-23T19:58:43.872Z,11.65
2022-12-23T20:01:15.545Z,11.15
2022-12-23T20:03:44.723Z,11.52
2022-12-23T20:06:19.520Z,11.82
2022-12-23T20:08:47.899Z,11.05
2022-12-23T20:11:26.246Z,12.43
2022-12-23T20:13:54.791Z,11.48
2022-12-23T20:16:23.010Z,11.70
2022-12-23T20:18:50.035Z,12.43
2022-12-23T20:21:17.190Z,12.75
2022-12-23T20:23:43.919Z,11.65
2022-12-23T20:26:13.488Z,12.38
2022-12-23T20:28:40.505Z,11.60
2022-12-23T20:31:18.996Z,13.02
2022-12-23T20:33:47.615Z,12.57
2022-12-23T20:36:18.019Z,13.20
2022-12-23T20:38:47.225Z,12.63
2022-12-23T20:41:24.697Z,11.55
2022-12-23T20:44:23.928Z,12.63
2022-12-23T20:46:39.108Z,12.13
2022-12-23T20:49:05.944Z,11.77
2022-12-23T20:51:32.659Z,12.40
2022-12-23T20:54:00.860Z,12.45
2022-12-23T20:56:29.353Z,12.38
2022-12-23T20:58:59.230Z,12.82
2022-12-23T21:01:38.627Z,12.75
2022-12-23T21:04:11.400Z,12.98
2022-12-23T21:06:40.679Z,12.82
2022-12-23T21:09:12.214Z,11.45
2022-12-23T21:11:43.165Z,11.70
2022-12-23T21:14:11.197Z,11.45
2022-12-23T21:16:38.788Z,11.52
2022-12-23T21:19:08.487Z,11.48
2022-12-23T21:21:35.351Z,10.65
2022-12-23T21:24:04.511Z,10.30
2022-12-23T21:26:34.299Z,10.13
2022-12-23T21:29:03.881Z,9.65
2022-12-23T21:31:34.288Z,9.27
2022-12-23T21:34:02.083Z,9.88
2022-12-23T21:36:33.547Z,9.65
2022-12-23T21:39:01.163Z,9.20
2022-12-23T21:41:36.371Z,9.05
2022-12-23T21:44:04.459Z,8.75
2022-12-23T21:46:31.558Z,8.40
2022-12-23T21:48:59.669Z,8.55
2022-12-23T21:51:39.406Z,8.60
2022-12-23T21:54:08.029Z,8.32
2022-12-23T21:56:35.222Z,7.68
2022-12-23T21:59:06.422Z,8.30
2022-12-23T22:01:34.217Z,8.25
2022-12-23T22:04:01.019Z,8.07
2022-12-23T22:06:38.220Z,8.70
2022-12-23T22:09:07.805Z,8.80
2022-12-23T22:11:36.847Z,8.57
2022-12-23T22:14:06.677Z,8.13
2022-12-23T22:16:35.483Z,7.75
2022-12-23T22:19:05.087Z,7.63
2022-12-23T22:21:33.874Z,7.32
2022-12-23T22:24:01.784Z,7.38
2022-12-23T22:26:32.080Z,6.55
2022-12-23T22:29:02.305Z,7.13
2022-12-23T22:31:41.789Z,7.30
2022-12-23T22:34:13.475Z,6.78
2022-12-23T22:36:40.204Z,6.55
2022-12-23T22:39:08.042Z,6.80
2022-12-23T22:41:35.152Z,6.47
2022-12-23T22:44:01.882Z,6.35
2022-12-23T22:46:29.115Z,6.63
2022-12-23T22:48:56.920Z,5.93
2022-12-23T22:51:28.657Z,6.57
2022-12-23T22:53:56.161Z,6.70
2022-12-23T22:56:24.882Z,6.20
2022-12-23T22:58:53.225Z,6.30
2022-12-23T23:01:35.875Z,6.32
2022-12-23T23:04:04.383Z,6.03
2022-12-23T23:06:38.349Z,5.90
2022-12-23T23:11:34.527Z,5.75
2022-12-23T23:14:01.814Z,6.43
2022-12-23T23:16:28.617Z,5.47
2022-12-23T23:18:55.878Z,5.60
2022-12-23T23:21:22.788Z,5.60
2022-12-23T23:23:50.100Z,5.88
2022-12-23T23:26:18.858Z,5.60
2022-12-23T23:28:46.092Z,5.10
2022-12-23T23:31:41.130Z,5.20
2022-12-23T23:34:00.866Z,5.28
2022-12-23T23:36:27.728Z,5.22
2022-12-23T23:38:54.483Z,5.60
2022-12-23T23:41:23.498Z,5.88
2022-12-23T23:43:51.196Z,5.72
2022-12-23T23:46:18.270Z,5.28
2022-12-23T23:48:45.078Z,5.68
2022-12-23T23:51:12.656Z,5.78
2022-12-23T23:53:40.101Z,5.88
2022-12-23T23:56:08.291Z,5.43
2022-12-23T23:58:37.113Z,5.43
